sensor_id;sensor_type;location;lat;lon;timestamp;P1;durP1;ratioP1;P2;durP2;ratioP2
11037;SDS011;5572;49.540;11.932;2023-08-31T00:01:04;4.83;;;4.43;;
11037;SDS011;5572;49.540;11.932;2023-08-31T00:03:32;4.57;;;4.17;;
11037;SDS011;5572;49.540;11.932;2023-08-31T00:06:00;4.53;;;4.13;;
11037;SDS011;5572;49.540;11.932;2023-08-31T00:08:28;3.87;;;3.53;;
11037;SDS011;5572;49.540;11.932;2023-08-31T00:10:55;4.47;;;4.07;;
11037;SDS011;5572;49.540;11.932;2023-08-31T00:13:22;5.20;;;4.10;;
11037;SDS011;5572;49.540;11.932;2023-08-31T00:15:49;4.60;;;4.17;;
11037;SDS011;5572;49.540;11.932;2023-08-31T00:18:15;3.90;;;3.60;;
11037;SDS011;5572;49.540;11.932;2023-08-31T00:20:44;4.00;;;3.70;;
11037;SDS011;5572;49.540;11.932;2023-08-31T00:23:11;3.87;;;3.67;;
11037;SDS011;5572;49.540;11.932;2023-08-31T00:25:38;4.47;;;3.57;;
11037;SDS011;5572;49.540;11.932;2023-08-31T00:28:04;3.50;;;3.30;;
11037;SDS011;5572;49.540;11.932;2023-08-31T00:30:31;5.90;;;3.90;;
11037;SDS011;5572;49.540;11.932;2023-08-31T00:32:58;3.87;;;3.40;;
11037;SDS011;5572;49.540;11.932;2023-08-31T00:35:25;3.97;;;3.70;;
11037;SDS011;5572;49.540;11.932;2023-08-31T00:37:53;4.23;;;3.40;;
11037;SDS011;5572;49.540;11.932;2023-08-31T00:40:23;4.00;;;3.70;;
11037;SDS011;5572;49.540;11.932;2023-08-31T00:42:50;5.53;;;3.70;;
11037;SDS011;5572;49.540;11.932;2023-08-31T00:45:17;3.90;;;3.60;;
11037;SDS011;5572;49.540;11.932;2023-08-31T00:47:44;4.17;;;3.83;;
11037;SDS011;5572;49.540;11.932;2023-08-31T00:50:12;3.83;;;3.53;;
11037;SDS011;5572;49.540;11.932;2023-08-31T00:52:39;5.50;;;4.10;;
11037;SDS011;5572;49.540;11.932;2023-08-31T00:55:09;3.50;;;3.30;;
11037;SDS011;5572;49.540;11.932;2023-08-31T00:57:36;4.33;;;3.93;;
11037;SDS011;5572;49.540;11.932;2023-08-31T01:00:03;3.93;;;3.63;;
11037;SDS011;5572;49.540;11.932;2023-08-31T01:02:34;3.73;;;3.53;;
11037;SDS011;5572;49.540;11.932;2023-08-31T01:05:13;5.00;;;3.77;;
11037;SDS011;5572;49.540;11.932;2023-08-31T01:07:51;3.40;;;3.20;;
11037;SDS011;5572;49.540;11.932;2023-08-31T01:10:25;3.80;;;3.50;;
11037;SDS011;5572;49.540;11.932;2023-08-31T01:13:02;4.00;;;3.70;;
11037;SDS011;5572;49.540;11.932;2023-08-31T01:15:36;4.10;;;3.80;;
11037;SDS011;5572;49.540;11.932;2023-08-31T01:18:06;4.93;;;4.53;;
11037;SDS011;5572;49.540;11.932;2023-08-31T01:20:37;4.40;;;4.00;;
11037;SDS011;5572;49.540;11.932;2023-08-31T01:23:09;7.93;;;4.17;;
11037;SDS011;5572;49.540;11.932;2023-08-31T01:25:40;4.00;;;3.70;;
11037;SDS011;5572;49.540;11.932;2023-08-31T01:28:09;3.63;;;3.37;;
11037;SDS011;5572;49.540;11.932;2023-08-31T01:30:36;4.50;;;4.10;;
11037;SDS011;5572;49.540;11.932;2023-08-31T01:33:03;5.73;;;4.60;;
11037;SDS011;5572;49.540;11.932;2023-08-31T01:35:32;3.63;;;3.33;;
11037;SDS011;5572;49.540;11.932;2023-08-31T01:38:05;6.10;;;3.57;;
11037;SDS011;5572;49.540;11.932;2023-08-31T01:40:34;4.30;;;3.90;;
11037;SDS011;5572;49.540;11.932;2023-08-31T01:43:06;5.80;;;3.87;;
11037;SDS011;5572;49.540;11.932;2023-08-31T01:45:34;9.80;;;5.20;;
11037;SDS011;5572;49.540;11.932;2023-08-31T01:48:02;6.80;;;4.40;;
11037;SDS011;5572;49.540;11.932;2023-08-31T01:50:30;6.17;;;3.97;;
11037;SDS011;5572;49.540;11.932;2023-08-31T01:52:56;6.00;;;3.90;;
11037;SDS011;5572;49.540;11.932;2023-08-31T01:55:23;4.43;;;4.03;;
11037;SDS011;5572;49.540;11.932;2023-08-31T01:57:50;4.00;;;3.60;;
11037;SDS011;5572;49.540;11.932;2023-08-31T02:00:18;4.67;;;4.20;;
11037;SDS011;5572;49.540;11.932;2023-08-31T02:02:45;4.00;;;3.70;;
11037;SDS011;5572;49.540;11.932;2023-08-31T02:05:12;6.10;;;3.53;;
11037;SDS011;5572;49.540;11.932;2023-08-31T02:07:38;4.57;;;3.70;;
11037;SDS011;5572;49.540;11.932;2023-08-31T02:10:05;4.03;;;3.80;;
11037;SDS011;5572;49.540;11.932;2023-08-31T02:12:33;3.73;;;3.50;;
11037;SDS011;5572;49.540;11.932;2023-08-31T02:15:01;3.97;;;3.57;;
11037;SDS011;5572;49.540;11.932;2023-08-31T02:17:29;4.13;;;3.77;;
11037;SDS011;5572;49.540;11.932;2023-08-31T02:19:55;3.87;;;3.60;;
11037;SDS011;5572;49.540;11.932;2023-08-31T02:22:22;4.53;;;3.77;;
11037;SDS011;5572;49.540;11.932;2023-08-31T02:24:49;3.70;;;3.40;;
11037;SDS011;5572;49.540;11.932;2023-08-31T02:27:17;3.97;;;3.60;;
11037;SDS011;5572;49.540;11.932;2023-08-31T02:29:44;4.20;;;3.80;;
11037;SDS011;5572;49.540;11.932;2023-08-31T02:32:10;3.60;;;3.40;;
11037;SDS011;5572;49.540;11.932;2023-08-31T02:34:38;4.20;;;3.80;;
11037;SDS011;5572;49.540;11.932;2023-08-31T02:37:04;3.83;;;3.53;;
11037;SDS011;5572;49.540;11.932;2023-08-31T02:39:31;3.97;;;3.67;;
11037;SDS011;5572;49.540;11.932;2023-08-31T02:41:58;5.23;;;3.77;;
11037;SDS011;5572;49.540;11.932;2023-08-31T02:44:24;3.80;;;3.50;;
11037;SDS011;5572;49.540;11.932;2023-08-31T02:46:51;3.90;;;3.47;;
11037;SDS011;5572;49.540;11.932;2023-08-31T02:49:17;4.17;;;3.87;;
11037;SDS011;5572;49.540;11.932;2023-08-31T02:51:45;4.53;;;4.13;;
11037;SDS011;5572;49.540;11.932;2023-08-31T02:54:14;3.60;;;3.40;;
11037;SDS011;5572;49.540;11.932;2023-08-31T02:56:40;3.70;;;3.40;;
11037;SDS011;5572;49.540;11.932;2023-08-31T02:59:07;3.57;;;3.27;;
11037;SDS011;5572;49.540;11.932;2023-08-31T03:01:33;4.13;;;3.83;;
11037;SDS011;5572;49.540;11.932;2023-08-31T03:04:00;4.30;;;3.50;;
11037;SDS011;5572;49.540;11.932;2023-08-31T03:06:27;4.00;;;3.70;;
11037;SDS011;5572;49.540;11.932;2023-08-31T03:08:54;3.67;;;3.43;;
11037;SDS011;5572;49.540;11.932;2023-08-31T03:11:21;3.90;;;3.50;;
11037;SDS011;5572;49.540;11.932;2023-08-31T03:13:48;6.60;;;4.23;;
11037;SDS011;5572;49.540;11.932;2023-08-31T03:16:14;4.40;;;4.10;;
11037;SDS011;5572;49.540;11.932;2023-08-31T03:18:41;3.90;;;3.60;;
11037;SDS011;5572;49.540;11.932;2023-08-31T03:21:07;4.23;;;3.83;;
11037;SDS011;5572;49.540;11.932;2023-08-31T03:23:34;4.47;;;3.63;;
11037;SDS011;5572;49.540;11.932;2023-08-31T03:26:07;4.00;;;3.70;;
11037;SDS011;5572;49.540;11.932;2023-08-31T03:28:34;5.60;;;3.83;;
11037;SDS011;5572;49.540;11.932;2023-08-31T03:31:00;4.13;;;3.83;;
11037;SDS011;5572;49.540;11.932;2023-08-31T03:33:27;3.87;;;3.53;;
11037;SDS011;5572;49.540;11.932;2023-08-31T03:35:54;3.60;;;3.30;;
11037;SDS011;5572;49.540;11.932;2023-08-31T03:38:25;3.53;;;3.33;;
11037;SDS011;5572;49.540;11.932;2023-08-31T03:40:52;3.73;;;3.43;;
11037;SDS011;5572;49.540;11.932;2023-08-31T03:43:21;3.40;;;3.20;;
11037;SDS011;5572;49.540;11.932;2023-08-31T03:45:48;3.53;;;3.33;;
11037;SDS011;5572;49.540;11.932;2023-08-31T03:48:14;3.83;;;3.53;;
11037;SDS011;5572;49.540;11.932;2023-08-31T03:50:41;4.00;;;3.70;;
11037;SDS011;5572;49.540;11.932;2023-08-31T03:53:07;3.50;;;3.20;;
11037;SDS011;5572;49.540;11.932;2023-08-31T03:55:35;3.73;;;3.43;;
11037;SDS011;5572;49.540;11.932;2023-08-31T03:58:02;4.07;;;3.70;;
11037;SDS011;5572;49.540;11.932;2023-08-31T04:00:31;4.20;;;3.87;;
11037;SDS011;5572;49.540;11.932;2023-08-31T04:02:57;3.93;;;3.73;;
11037;SDS011;5572;49.540;11.932;2023-08-31T04:05:24;4.40;;;4.00;;
11037;SDS011;5572;49.540;11.932;2023-08-31T04:07:51;3.93;;;3.63;;
11037;SDS011;5572;49.540;11.932;2023-08-31T04:10:17;4.20;;;3.77;;
11037;SDS011;5572;49.540;11.932;2023-08-31T04:12:44;3.67;;;3.37;;
11037;SDS011;5572;49.540;11.932;2023-08-31T04:15:11;7.27;;;3.83;;
11037;SDS011;5572;49.540;11.932;2023-08-31T04:17:40;3.60;;;3.40;;
11037;SDS011;5572;49.540;11.932;2023-08-31T04:20:07;4.17;;;3.70;;
11037;SDS011;5572;49.540;11.932;2023-08-31T04:22:33;3.70;;;3.30;;
11037;SDS011;5572;49.540;11.932;2023-08-31T04:25:00;4.83;;;3.87;;
11037;SDS011;5572;49.540;11.932;2023-08-31T04:27:27;4.23;;;3.83;;
11037;SDS011;5572;49.540;11.932;2023-08-31T04:29:56;3.73;;;3.43;;
11037;SDS011;5572;49.540;11.932;2023-08-31T04:32:22;8.97;;;4.20;;
11037;SDS011;5572;49.540;11.932;2023-08-31T04:34:52;4.00;;;3.70;;
11037;SDS011;5572;49.540;11.932;2023-08-31T04:37:18;4.40;;;4.00;;
11037;SDS011;5572;49.540;11.932;2023-08-31T04:39:45;5.93;;;3.77;;
11037;SDS011;5572;49.540;11.932;2023-08-31T04:42:11;5.13;;;3.60;;
11037;SDS011;5572;49.540;11.932;2023-08-31T04:44:38;4.33;;;3.83;;
11037;SDS011;5572;49.540;11.932;2023-08-31T04:47:04;4.10;;;3.80;;
11037;SDS011;5572;49.540;11.932;2023-08-31T04:49:31;10.10;;;3.97;;
11037;SDS011;5572;49.540;11.932;2023-08-31T04:51:59;4.40;;;4.10;;
11037;SDS011;5572;49.540;11.932;2023-08-31T04:54:26;4.13;;;3.83;;
11037;SDS011;5572;49.540;11.932;2023-08-31T04:56:52;7.03;;;3.70;;
11037;SDS011;5572;49.540;11.932;2023-08-31T04:59:19;7.63;;;4.40;;
11037;SDS011;5572;49.540;11.932;2023-08-31T05:01:45;4.30;;;4.00;;
11037;SDS011;5572;49.540;11.932;2023-08-31T05:04:12;4.07;;;3.70;;
11037;SDS011;5572;49.540;11.932;2023-08-31T05:06:38;4.17;;;3.87;;
11037;SDS011;5572;49.540;11.932;2023-08-31T05:09:06;5.70;;;4.20;;
11037;SDS011;5572;49.540;11.932;2023-08-31T05:11:35;8.13;;;4.17;;
11037;SDS011;5572;49.540;11.932;2023-08-31T05:14:01;4.83;;;4.43;;
11037;SDS011;5572;49.540;11.932;2023-08-31T05:16:28;5.03;;;4.53;;
11037;SDS011;5572;49.540;11.932;2023-08-31T05:18:55;4.83;;;4.10;;
11037;SDS011;5572;49.540;11.932;2023-08-31T05:21:21;4.20;;;3.83;;
11037;SDS011;5572;49.540;11.932;2023-08-31T05:23:48;4.30;;;4.00;;
11037;SDS011;5572;49.540;11.932;2023-08-31T05:26:16;7.13;;;3.70;;
11037;SDS011;5572;49.540;11.932;2023-08-31T05:28:43;4.80;;;4.40;;
11037;SDS011;5572;49.540;11.932;2023-08-31T05:31:09;4.43;;;4.10;;
11037;SDS011;5572;49.540;11.932;2023-08-31T05:33:36;4.50;;;4.10;;
11037;SDS011;5572;49.540;11.932;2023-08-31T05:36:02;4.80;;;4.37;;
11037;SDS011;5572;49.540;11.932;2023-08-31T05:38:29;7.27;;;4.57;;
11037;SDS011;5572;49.540;11.932;2023-08-31T05:41:03;13.57;;;4.53;;
11037;SDS011;5572;49.540;11.932;2023-08-31T05:43:32;4.50;;;4.10;;
11037;SDS011;5572;49.540;11.932;2023-08-31T05:45:59;4.67;;;4.30;;
11037;SDS011;5572;49.540;11.932;2023-08-31T05:48:26;4.60;;;4.30;;
11037;SDS011;5572;49.540;11.932;2023-08-31T05:50:53;6.87;;;4.07;;
11037;SDS011;5572;49.540;11.932;2023-08-31T05:53:20;4.20;;;3.87;;
11037;SDS011;5572;49.540;11.932;2023-08-31T05:55:46;4.47;;;4.17;;
11037;SDS011;5572;49.540;11.932;2023-08-31T05:58:13;5.80;;;4.73;;
11037;SDS011;5572;49.540;11.932;2023-08-31T06:00:41;4.40;;;4.10;;
11037;SDS011;5572;49.540;11.932;2023-08-31T06:03:07;4.27;;;3.90;;
11037;SDS011;5572;49.540;11.932;2023-08-31T06:05:35;4.90;;;4.50;;
11037;SDS011;5572;49.540;11.932;2023-08-31T06:08:03;9.97;;;4.40;;
11037;SDS011;5572;49.540;11.932;2023-08-31T06:10:30;5.23;;;4.73;;
11037;SDS011;5572;49.540;11.932;2023-08-31T06:12:57;5.10;;;4.53;;
11037;SDS011;5572;49.540;11.932;2023-08-31T06:15:23;4.50;;;4.10;;
11037;SDS011;5572;49.540;11.932;2023-08-31T06:17:51;5.07;;;4.50;;
11037;SDS011;5572;49.540;11.932;2023-08-31T06:20:18;8.63;;;4.53;;
11037;SDS011;5572;49.540;11.932;2023-08-31T06:22:45;5.00;;;4.50;;
11037;SDS011;5572;49.540;11.932;2023-08-31T06:25:11;5.70;;;4.73;;
11037;SDS011;5572;49.540;11.932;2023-08-31T06:27:41;7.80;;;5.40;;
11037;SDS011;5572;49.540;11.932;2023-08-31T06:30:09;5.80;;;5.07;;
11037;SDS011;5572;49.540;11.932;2023-08-31T06:32:40;5.37;;;4.60;;
11037;SDS011;5572;49.540;11.932;2023-08-31T06:35:09;5.00;;;4.30;;
11037;SDS011;5572;49.540;11.932;2023-08-31T06:37:35;4.53;;;4.20;;
11037;SDS011;5572;49.540;11.932;2023-08-31T06:40:02;5.33;;;4.47;;
11037;SDS011;5572;49.540;11.932;2023-08-31T06:42:29;6.17;;;4.60;;
11037;SDS011;5572;49.540;11.932;2023-08-31T06:44:56;4.47;;;4.07;;
11037;SDS011;5572;49.540;11.932;2023-08-31T06:47:22;4.83;;;4.43;;
11037;SDS011;5572;49.540;11.932;2023-08-31T06:49:49;6.23;;;4.60;;
11037;SDS011;5572;49.540;11.932;2023-08-31T06:52:17;6.13;;;4.60;;
11037;SDS011;5572;49.540;11.932;2023-08-31T06:54:43;5.90;;;4.73;;
11037;SDS011;5572;49.540;11.932;2023-08-31T06:57:10;5.20;;;4.70;;
11037;SDS011;5572;49.540;11.932;2023-08-31T06:59:37;6.90;;;4.97;;
11037;SDS011;5572;49.540;11.932;2023-08-31T07:02:03;7.13;;;5.23;;
11037;SDS011;5572;49.540;11.932;2023-08-31T07:04:30;5.47;;;4.97;;
11037;SDS011;5572;49.540;11.932;2023-08-31T07:06:56;7.47;;;5.60;;
11037;SDS011;5572;49.540;11.932;2023-08-31T07:09:24;6.53;;;5.30;;
11037;SDS011;5572;49.540;11.932;2023-08-31T07:11:52;6.30;;;4.97;;
11037;SDS011;5572;49.540;11.932;2023-08-31T07:14:18;6.67;;;5.43;;
11037;SDS011;5572;49.540;11.932;2023-08-31T07:16:45;6.10;;;5.50;;
11037;SDS011;5572;49.540;11.932;2023-08-31T07:19:11;6.03;;;5.20;;
11037;SDS011;5572;49.540;11.932;2023-08-31T07:21:38;6.53;;;5.40;;
11037;SDS011;5572;49.540;11.932;2023-08-31T07:24:05;8.13;;;5.70;;
11037;SDS011;5572;49.540;11.932;2023-08-31T07:26:33;7.57;;;5.20;;
11037;SDS011;5572;49.540;11.932;2023-08-31T07:29:00;5.50;;;5.03;;
11037;SDS011;5572;49.540;11.932;2023-08-31T07:31:29;7.93;;;5.37;;
11037;SDS011;5572;49.540;11.932;2023-08-31T07:33:56;7.07;;;5.27;;
11037;SDS011;5572;49.540;11.932;2023-08-31T07:36:24;6.50;;;4.73;;
11037;SDS011;5572;49.540;11.932;2023-08-31T07:38:51;5.40;;;4.90;;
11037;SDS011;5572;49.540;11.932;2023-08-31T07:41:17;5.33;;;4.83;;
11037;SDS011;5572;49.540;11.932;2023-08-31T07:43:45;5.03;;;4.47;;
11037;SDS011;5572;49.540;11.932;2023-08-31T07:46:12;5.13;;;4.73;;
11037;SDS011;5572;49.540;11.932;2023-08-31T07:48:38;4.83;;;4.50;;
11037;SDS011;5572;49.540;11.932;2023-08-31T07:51:05;5.13;;;4.73;;
11037;SDS011;5572;49.540;11.932;2023-08-31T07:53:31;5.00;;;4.70;;
11037;SDS011;5572;49.540;11.932;2023-08-31T07:55:58;8.17;;;5.00;;
11037;SDS011;5572;49.540;11.932;2023-08-31T07:58:25;5.20;;;4.70;;
11037;SDS011;5572;49.540;11.932;2023-08-31T08:00:53;4.87;;;4.40;;
11037;SDS011;5572;49.540;11.932;2023-08-31T08:03:20;4.37;;;4.07;;
11037;SDS011;5572;49.540;11.932;2023-08-31T08:05:47;5.33;;;4.50;;
11037;SDS011;5572;49.540;11.932;2023-08-31T08:08:14;6.47;;;4.70;;
11037;SDS011;5572;49.540;11.932;2023-08-31T08:10:40;4.17;;;3.83;;
11037;SDS011;5572;49.540;11.932;2023-08-31T08:13:08;4.80;;;4.23;;
11037;SDS011;5572;49.540;11.932;2023-08-31T08:15:34;6.97;;;4.33;;
11037;SDS011;5572;49.540;11.932;2023-08-31T08:18:03;4.57;;;4.27;;
11037;SDS011;5572;49.540;11.932;2023-08-31T08:20:31;4.97;;;4.30;;
11037;SDS011;5572;49.540;11.932;2023-08-31T08:22:57;4.87;;;4.20;;
11037;SDS011;5572;49.540;11.932;2023-08-31T08:25:24;4.20;;;3.80;;
11037;SDS011;5572;49.540;11.932;2023-08-31T08:27:51;8.57;;;4.63;;
11037;SDS011;5572;49.540;11.932;2023-08-31T08:30:18;4.87;;;4.40;;
11037;SDS011;5572;49.540;11.932;2023-08-31T08:32:44;4.10;;;3.80;;
11037;SDS011;5572;49.540;11.932;2023-08-31T08:35:12;7.00;;;4.00;;
11037;SDS011;5572;49.540;11.932;2023-08-31T08:37:40;4.53;;;4.13;;
11037;SDS011;5572;49.540;11.932;2023-08-31T08:40:07;4.77;;;4.30;;
11037;SDS011;5572;49.540;11.932;2023-08-31T08:42:37;4.27;;;3.90;;
11037;SDS011;5572;49.540;11.932;2023-08-31T08:45:08;5.27;;;3.93;;
11037;SDS011;5572;49.540;11.932;2023-08-31T08:47:41;4.73;;;4.10;;
11037;SDS011;5572;49.540;11.932;2023-08-31T08:50:09;4.50;;;4.20;;
11037;SDS011;5572;49.540;11.932;2023-08-31T08:52:39;5.90;;;3.90;;
11037;SDS011;5572;49.540;11.932;2023-08-31T08:55:07;4.00;;;3.70;;
11037;SDS011;5572;49.540;11.932;2023-08-31T08:57:34;3.87;;;3.57;;
11037;SDS011;5572;49.540;11.932;2023-08-31T09:00:02;5.27;;;4.27;;
11037;SDS011;5572;49.540;11.932;2023-08-31T09:02:30;4.07;;;3.73;;
11037;SDS011;5572;49.540;11.932;2023-08-31T09:04:56;5.40;;;3.90;;
11037;SDS011;5572;49.540;11.932;2023-08-31T09:07:23;4.20;;;3.87;;
11037;SDS011;5572;49.540;11.932;2023-08-31T09:09:53;4.53;;;4.10;;
11037;SDS011;5572;49.540;11.932;2023-08-31T09:12:21;4.10;;;3.70;;
11037;SDS011;5572;49.540;11.932;2023-08-31T09:14:58;4.17;;;3.77;;
11037;SDS011;5572;49.540;11.932;2023-08-31T09:17:25;4.57;;;4.07;;
11037;SDS011;5572;49.540;11.932;2023-08-31T09:19:59;3.73;;;3.53;;
11037;SDS011;5572;49.540;11.932;2023-08-31T09:22:28;4.80;;;3.10;;
11037;SDS011;5572;49.540;11.932;2023-08-31T09:24:56;3.60;;;3.40;;
11037;SDS011;5572;49.540;11.932;2023-08-31T09:27:23;4.43;;;4.07;;
11037;SDS011;5572;49.540;11.932;2023-08-31T09:29:50;3.60;;;3.40;;
11037;SDS011;5572;49.540;11.932;2023-08-31T09:32:17;4.00;;;3.70;;
11037;SDS011;5572;49.540;11.932;2023-08-31T09:34:43;4.87;;;3.60;;
11037;SDS011;5572;49.540;11.932;2023-08-31T09:37:10;4.33;;;3.90;;
11037;SDS011;5572;49.540;11.932;2023-08-31T09:39:38;3.90;;;3.70;;
11037;SDS011;5572;49.540;11.932;2023-08-31T09:42:07;3.60;;;3.40;;
11037;SDS011;5572;49.540;11.932;2023-08-31T09:44:34;3.40;;;3.20;;
11037;SDS011;5572;49.540;11.932;2023-08-31T09:47:06;3.43;;;3.23;;
11037;SDS011;5572;49.540;11.932;2023-08-31T09:49:33;3.63;;;3.33;;
11037;SDS011;5572;49.540;11.932;2023-08-31T09:52:02;3.83;;;3.40;;
11037;SDS011;5572;49.540;11.932;2023-08-31T09:54:29;4.00;;;3.50;;
11037;SDS011;5572;49.540;11.932;2023-08-31T09:56:58;3.40;;;3.10;;
11037;SDS011;5572;49.540;11.932;2023-08-31T09:59:27;4.73;;;4.10;;
11037;SDS011;5572;49.540;11.932;2023-08-31T10:01:54;3.57;;;3.17;;
11037;SDS011;5572;49.540;11.932;2023-08-31T10:04:22;11.17;;;3.50;;
11037;SDS011;5572;49.540;11.932;2023-08-31T10:06:49;3.40;;;3.20;;
11037;SDS011;5572;49.540;11.932;2023-08-31T10:09:17;3.70;;;3.43;;
11037;SDS011;5572;49.540;11.932;2023-08-31T10:11:45;4.10;;;3.70;;
11037;SDS011;5572;49.540;11.932;2023-08-31T10:14:13;4.40;;;3.97;;
11037;SDS011;5572;49.540;11.932;2023-08-31T10:16:43;3.57;;;3.33;;
11037;SDS011;5572;49.540;11.932;2023-08-31T10:19:11;3.63;;;3.33;;
11037;SDS011;5572;49.540;11.932;2023-08-31T10:21:37;3.60;;;3.30;;
11037;SDS011;5572;49.540;11.932;2023-08-31T10:24:06;3.80;;;3.20;;
11037;SDS011;5572;49.540;11.932;2023-08-31T10:26:32;3.27;;;3.07;;
11037;SDS011;5572;49.540;11.932;2023-08-31T10:28:59;3.73;;;3.43;;
11037;SDS011;5572;49.540;11.932;2023-08-31T10:31:28;3.83;;;3.53;;
11037;SDS011;5572;49.540;11.932;2023-08-31T10:33:58;3.80;;;3.50;;
11037;SDS011;5572;49.540;11.932;2023-08-31T10:36:35;4.63;;;3.93;;
11037;SDS011;5572;49.540;11.932;2023-08-31T10:39:07;3.90;;;3.60;;
11037;SDS011;5572;49.540;11.932;2023-08-31T10:41:38;5.70;;;3.80;;
11037;SDS011;5572;49.540;11.932;2023-08-31T10:46:48;3.90;;;3.60;;
11037;SDS011;5572;49.540;11.932;2023-08-31T10:49:18;5.20;;;3.97;;
11037;SDS011;5572;49.540;11.932;2023-08-31T10:51:46;5.13;;;3.53;;
11037;SDS011;5572;49.540;11.932;2023-08-31T10:54:19;4.13;;;3.77;;
11037;SDS011;5572;49.540;11.932;2023-08-31T10:56:53;4.27;;;3.97;;
11037;SDS011;5572;49.540;11.932;2023-08-31T10:59:21;4.37;;;4.03;;
11037;SDS011;5572;49.540;11.932;2023-08-31T11:01:55;4.53;;;3.53;;
11037;SDS011;5572;49.540;11.932;2023-08-31T11:04:25;3.87;;;3.50;;
11037;SDS011;5572;49.540;11.932;2023-08-31T11:09:41;3.80;;;3.50;;
11037;SDS011;5572;49.540;11.932;2023-08-31T11:12:09;3.83;;;3.50;;
11037;SDS011;5572;49.540;11.932;2023-08-31T11:14:37;4.20;;;3.90;;
11037;SDS011;5572;49.540;11.932;2023-08-31T11:17:04;3.90;;;3.60;;
11037;SDS011;5572;49.540;11.932;2023-08-31T11:19:34;4.43;;;3.90;;
11037;SDS011;5572;49.540;11.932;2023-08-31T11:22:01;4.03;;;3.83;;
11037;SDS011;5572;49.540;11.932;2023-08-31T11:24:29;3.80;;;3.50;;
11037;SDS011;5572;49.540;11.932;2023-08-31T11:26:57;4.87;;;3.73;;
11037;SDS011;5572;49.540;11.932;2023-08-31T11:29:24;3.67;;;3.33;;
11037;SDS011;5572;49.540;11.932;2023-08-31T11:31:50;4.20;;;3.90;;
11037;SDS011;5572;49.540;11.932;2023-08-31T11:34:18;3.90;;;3.70;;
11037;SDS011;5572;49.540;11.932;2023-08-31T11:36:46;4.27;;;3.87;;
11037;SDS011;5572;49.540;11.932;2023-08-31T11:39:14;3.60;;;3.40;;
11037;SDS011;5572;49.540;11.932;2023-08-31T11:41:43;3.60;;;3.40;;
11037;SDS011;5572;49.540;11.932;2023-08-31T11:44:11;3.30;;;3.20;;
11037;SDS011;5572;49.540;11.932;2023-08-31T11:46:41;3.73;;;3.53;;
11037;SDS011;5572;49.540;11.932;2023-08-31T11:49:09;4.07;;;3.77;;
11037;SDS011;5572;49.540;11.932;2023-08-31T11:51:36;4.17;;;3.70;;
11037;SDS011;5572;49.540;11.932;2023-08-31T11:54:07;4.30;;;4.00;;
11037;SDS011;5572;49.540;11.932;2023-08-31T11:56:40;4.33;;;3.40;;
11037;SDS011;5572;49.540;11.932;2023-08-31T11:59:08;3.90;;;3.60;;
11037;SDS011;5572;49.540;11.932;2023-08-31T12:01:37;3.57;;;3.37;;
11037;SDS011;5572;49.540;11.932;2023-08-31T12:04:09;3.33;;;3.17;;
11037;SDS011;5572;49.540;11.932;2023-08-31T12:06:37;4.03;;;3.73;;
11037;SDS011;5572;49.540;11.932;2023-08-31T12:09:04;4.00;;;3.50;;
11037;SDS011;5572;49.540;11.932;2023-08-31T12:11:33;4.23;;;3.80;;
11037;SDS011;5572;49.540;11.932;2023-08-31T12:14:00;3.60;;;3.40;;
11037;SDS011;5572;49.540;11.932;2023-08-31T12:16:32;3.57;;;3.27;;
11037;SDS011;5572;49.540;11.932;2023-08-31T12:19:01;4.77;;;4.30;;
11037;SDS011;5572;49.540;11.932;2023-08-31T12:21:29;3.57;;;3.33;;
11037;SDS011;5572;49.540;11.932;2023-08-31T12:23:56;6.83;;;3.90;;
11037;SDS011;5572;49.540;11.932;2023-08-31T12:26:25;3.87;;;3.63;;
11037;SDS011;5572;49.540;11.932;2023-08-31T12:28:52;4.50;;;4.10;;
11037;SDS011;5572;49.540;11.932;2023-08-31T12:31:19;4.50;;;4.00;;
11037;SDS011;5572;49.540;11.932;2023-08-31T12:33:45;3.77;;;3.47;;
11037;SDS011;5572;49.540;11.932;2023-08-31T12:36:12;4.07;;;3.77;;
11037;SDS011;5572;49.540;11.932;2023-08-31T12:38:39;4.13;;;3.90;;
11037;SDS011;5572;49.540;11.932;2023-08-31T12:41:06;4.60;;;4.23;;
11037;SDS011;5572;49.540;11.932;2023-08-31T12:43:35;4.10;;;3.80;;
11037;SDS011;5572;49.540;11.932;2023-08-31T12:46:01;4.07;;;3.83;;
11037;SDS011;5572;49.540;11.932;2023-08-31T12:48:30;4.57;;;4.27;;
11037;SDS011;5572;49.540;11.932;2023-08-31T12:50:57;4.33;;;4.00;;
11037;SDS011;5572;49.540;11.932;2023-08-31T12:53:24;4.07;;;3.63;;
11037;SDS011;5572;49.540;11.932;2023-08-31T12:55:52;4.40;;;4.00;;
11037;SDS011;5572;49.540;11.932;2023-08-31T12:58:18;5.20;;;4.30;;
11037;SDS011;5572;49.540;11.932;2023-08-31T13:00:48;4.57;;;4.07;;
11037;SDS011;5572;49.540;11.932;2023-08-31T13:03:18;4.40;;;4.10;;
11037;SDS011;5572;49.540;11.932;2023-08-31T13:05:45;4.30;;;4.00;;
11037;SDS011;5572;49.540;11.932;2023-08-31T13:08:11;4.37;;;4.07;;
11037;SDS011;5572;49.540;11.932;2023-08-31T13:10:39;4.40;;;4.10;;
11037;SDS011;5572;49.540;11.932;2023-08-31T13:13:05;7.30;;;4.53;;
11037;SDS011;5572;49.540;11.932;2023-08-31T13:15:32;4.77;;;4.43;;
11037;SDS011;5572;49.540;11.932;2023-08-31T13:18:00;4.30;;;3.90;;
11037;SDS011;5572;49.540;11.932;2023-08-31T13:20:27;4.50;;;4.10;;
11037;SDS011;5572;49.540;11.932;2023-08-31T13:22:53;4.00;;;3.70;;
11037;SDS011;5572;49.540;11.932;2023-08-31T13:25:20;4.10;;;3.80;;
11037;SDS011;5572;49.540;11.932;2023-08-31T13:27:47;4.27;;;3.87;;
11037;SDS011;5572;49.540;11.932;2023-08-31T13:30:13;4.13;;;3.87;;
11037;SDS011;5572;49.540;11.932;2023-08-31T13:32:40;4.30;;;4.00;;
11037;SDS011;5572;49.540;11.932;2023-08-31T13:35:09;4.07;;;3.70;;
11037;SDS011;5572;49.540;11.932;2023-08-31T13:37:36;6.27;;;4.20;;
11037;SDS011;5572;49.540;11.932;2023-08-31T13:40:03;4.47;;;4.10;;
11037;SDS011;5572;49.540;11.932;2023-08-31T13:42:33;5.60;;;4.47;;
11037;SDS011;5572;49.540;11.932;2023-08-31T13:45:03;4.13;;;3.80;;
11037;SDS011;5572;49.540;11.932;2023-08-31T13:47:31;4.30;;;3.80;;
11037;SDS011;5572;49.540;11.932;2023-08-31T13:49:58;5.70;;;4.27;;
11037;SDS011;5572;49.540;11.932;2023-08-31T13:52:26;3.97;;;3.70;;
11037;SDS011;5572;49.540;11.932;2023-08-31T13:54:53;5.40;;;4.60;;
11037;SDS011;5572;49.540;11.932;2023-08-31T13:57:20;5.07;;;4.63;;
11037;SDS011;5572;49.540;11.932;2023-08-31T13:59:46;4.77;;;4.30;;
11037;SDS011;5572;49.540;11.932;2023-08-31T14:02:13;4.40;;;4.10;;
11037;SDS011;5572;49.540;11.932;2023-08-31T14:04:40;4.40;;;4.00;;
11037;SDS011;5572;49.540;11.932;2023-08-31T14:07:06;4.03;;;3.73;;
11037;SDS011;5572;49.540;11.932;2023-08-31T14:09:35;4.70;;;4.00;;
11037;SDS011;5572;49.540;11.932;2023-08-31T14:12:01;4.10;;;3.90;;
11037;SDS011;5572;49.540;11.932;2023-08-31T14:14:28;4.50;;;4.20;;
11037;SDS011;5572;49.540;11.932;2023-08-31T14:16:55;4.80;;;4.50;;
11037;SDS011;5572;49.540;11.932;2023-08-31T14:19:22;4.07;;;3.77;;
11037;SDS011;5572;49.540;11.932;2023-08-31T14:21:48;3.60;;;3.40;;
11037;SDS011;5572;49.540;11.932;2023-08-31T14:24:15;3.77;;;3.57;;
11037;SDS011;5572;49.540;11.932;2023-08-31T14:26:44;3.70;;;3.50;;
11037;SDS011;5572;49.540;11.932;2023-08-31T14:29:11;4.27;;;3.97;;
11037;SDS011;5572;49.540;11.932;2023-08-31T14:31:38;4.53;;;4.23;;
11037;SDS011;5572;49.540;11.932;2023-08-31T14:34:04;4.03;;;3.73;;
11037;SDS011;5572;49.540;11.932;2023-08-31T14:36:31;3.60;;;3.40;;
11037;SDS011;5572;49.540;11.932;2023-08-31T14:38:58;3.70;;;3.50;;
11037;SDS011;5572;49.540;11.932;2023-08-31T14:41:24;3.80;;;3.57;;
11037;SDS011;5572;49.540;11.932;2023-08-31T14:43:52;4.00;;;3.70;;
11037;SDS011;5572;49.540;11.932;2023-08-31T14:46:19;3.90;;;3.70;;
11037;SDS011;5572;49.540;11.932;2023-08-31T14:48:47;4.17;;;3.87;;
11037;SDS011;5572;49.540;11.932;2023-08-31T14:51:13;4.27;;;3.87;;
11037;SDS011;5572;49.540;11.932;2023-08-31T14:53:40;3.90;;;3.60;;
11037;SDS011;5572;49.540;11.932;2023-08-31T14:56:07;4.53;;;4.23;;